sensor_id;sensor_type;location;lat;lon;timestamp;P1;durP1;ratioP1;P2;durP2;ratioP2
52342;SDS011;38277;51.972;4.624;2022-08-21T00:03:21;4.2;;;2.4;;
52342;SDS011;38277;51.972;4.624;2022-08-21T00:08:51;5.8;;;2.0;;
52342;SDS011;38277;51.972;4.624;2022-08-21T00:12:27;3.6;;;2.1;;
52342;SDS011;38277;51.972;4.624;2022-08-21T00:17:03;6.1;;;2.2;;
52342;SDS011;38277;51.972;4.624;2022-08-21T00:21:34;6.6;;;2.3;;
52342;SDS011;38277;51.972;4.624;2022-08-21T00:26:14;4.1;;;2.1;;
52342;SDS011;38277;51.972;4.624;2022-08-21T00:30:33;3.5;;;2.0;;
52342;SDS011;38277;51.972;4.624;2022-08-21T00:35:52;5.6;;;2.1;;
52342;SDS011;38277;51.972;4.624;2022-08-21T00:45:04;5.7;;;1.8;;
52342;SDS011;38277;51.972;4.624;2022-08-21T00:48:35;3.8;;;2.0;;
52342;SDS011;38277;51.972;4.624;2022-08-21T00:52:59;4.4;;;1.9;;
52342;SDS011;38277;51.972;4.624;2022-08-21T01:03:11;3.1;;;1.5;;
52342;SDS011;38277;51.972;4.624;2022-08-21T01:06:49;4.9;;;2.0;;
52342;SDS011;38277;51.972;4.624;2022-08-21T01:11:13;4.8;;;1.8;;
52342;SDS011;38277;51.972;4.624;2022-08-21T01:15:48;4.4;;;1.8;;
52342;SDS011;38277;51.972;4.624;2022-08-21T01:20:15;4.7;;;1.7;;
52342;SDS011;38277;51.972;4.624;2022-08-21T01:24:32;3.9;;;1.9;;
52342;SDS011;38277;51.972;4.624;2022-08-21T01:28:54;5.4;;;2.1;;
52342;SDS011;38277;51.972;4.624;2022-08-21T01:33:36;4.4;;;1.7;;
52342;SDS011;38277;51.972;4.624;2022-08-21T01:38:39;2.8;;;1.6;;
52342;SDS011;38277;51.972;4.624;2022-08-21T01:42:36;5.1;;;1.7;;
52342;SDS011;38277;51.972;4.624;2022-08-21T01:47:16;3.9;;;1.8;;
52342;SDS011;38277;51.972;4.624;2022-08-21T01:51:48;3.5;;;1.6;;
52342;SDS011;38277;51.972;4.624;2022-08-21T01:56:15;3.4;;;1.6;;
52342;SDS011;38277;51.972;4.624;2022-08-21T02:00:38;3.7;;;1.7;;
52342;SDS011;38277;51.972;4.624;2022-08-21T02:05:09;4.3;;;1.7;;
52342;SDS011;38277;51.972;4.624;2022-08-21T02:09:35;3.4;;;1.8;;
52342;SDS011;38277;51.972;4.624;2022-08-21T02:13:57;4.7;;;1.9;;
52342;SDS011;38277;51.972;4.624;2022-08-21T02:18:26;3.7;;;1.9;;
52342;SDS011;38277;51.972;4.624;2022-08-21T02:23:08;3.7;;;1.4;;
52342;SDS011;38277;51.972;4.624;2022-08-21T02:27:45;4.1;;;1.7;;
52342;SDS011;38277;51.972;4.624;2022-08-21T02:32:15;3.5;;;1.8;;
52342;SDS011;38277;51.972;4.624;2022-08-21T02:36:20;4.6;;;2.2;;
52342;SDS011;38277;51.972;4.624;2022-08-21T02:40:52;4.9;;;1.8;;
52342;SDS011;38277;51.972;4.624;2022-08-21T02:45:43;4.2;;;1.8;;
52342;SDS011;38277;51.972;4.624;2022-08-21T02:49:56;5.7;;;2.0;;
52342;SDS011;38277;51.972;4.624;2022-08-21T02:54:23;5.7;;;2.0;;
52342;SDS011;38277;51.972;4.624;2022-08-21T02:58:51;7.3;;;1.8;;
52342;SDS011;38277;51.972;4.624;2022-08-21T03:12:25;3.5;;;1.8;;
52342;SDS011;38277;51.972;4.624;2022-08-21T03:16:53;6.4;;;1.9;;
52342;SDS011;38277;51.972;4.624;2022-08-21T03:21:49;6.2;;;2.1;;
52342;SDS011;38277;51.972;4.624;2022-08-21T03:30:42;5.4;;;2.0;;
52342;SDS011;38277;51.972;4.624;2022-08-21T03:35:00;3.1;;;2.0;;
52342;SDS011;38277;51.972;4.624;2022-08-21T03:39:34;5.7;;;1.9;;
52342;SDS011;38277;51.972;4.624;2022-08-21T03:43:52;4.7;;;1.9;;
52342;SDS011;38277;51.972;4.624;2022-08-21T03:49:12;9.3;;;2.1;;
52342;SDS011;38277;51.972;4.624;2022-08-21T03:57:45;4.6;;;2.2;;
52342;SDS011;38277;51.972;4.624;2022-08-21T04:02:01;7.4;;;2.3;;
52342;SDS011;38277;51.972;4.624;2022-08-21T04:06:36;6.4;;;2.2;;
52342;SDS011;38277;51.972;4.624;2022-08-21T04:11:04;8.5;;;2.4;;
52342;SDS011;38277;51.972;4.624;2022-08-21T04:15:23;7.1;;;2.3;;
52342;SDS011;38277;51.972;4.624;2022-08-21T04:19:55;12.4;;;3.8;;
52342;SDS011;38277;51.972;4.624;2022-08-21T04:25:31;11.2;;;2.7;;
52342;SDS011;38277;51.972;4.624;2022-08-21T04:29:14;6.5;;;2.2;;
52342;SDS011;38277;51.972;4.624;2022-08-21T04:33:40;12.6;;;2.8;;
52342;SDS011;38277;51.972;4.624;2022-08-21T04:37:56;6.8;;;2.4;;
52342;SDS011;38277;51.972;4.624;2022-08-21T04:43:16;9.9;;;3.2;;
52342;SDS011;38277;51.972;4.624;2022-08-21T04:48:35;10.0;;;3.5;;
52342;SDS011;38277;51.972;4.624;2022-08-21T04:51:21;11.2;;;3.4;;
52342;SDS011;38277;51.972;4.624;2022-08-21T04:56:04;13.7;;;3.7;;
52342;SDS011;38277;51.972;4.624;2022-08-21T05:01:09;15.3;;;4.0;;
52342;SDS011;38277;51.972;4.624;2022-08-21T05:05:17;12.4;;;4.0;;
52342;SDS011;38277;51.972;4.624;2022-08-21T05:09:20;10.8;;;4.4;;
52342;SDS011;38277;51.972;4.624;2022-08-21T05:14:08;15.9;;;4.5;;
52342;SDS011;38277;51.972;4.624;2022-08-21T05:18:48;15.0;;;5.2;;
52342;SDS011;38277;51.972;4.624;2022-08-21T05:23:18;18.9;;;5.4;;
52342;SDS011;38277;51.972;4.624;2022-08-21T05:28:14;13.3;;;4.7;;
52342;SDS011;38277;51.972;4.624;2022-08-21T05:31:59;10.9;;;4.0;;
52342;SDS011;38277;51.972;4.624;2022-08-21T05:36:25;12.6;;;4.6;;
52342;SDS011;38277;51.972;4.624;2022-08-21T05:41:09;17.3;;;5.7;;
52342;SDS011;38277;51.972;4.624;2022-08-21T05:46:13;11.0;;;3.7;;
52342;SDS011;38277;51.972;4.624;2022-08-21T05:50:01;13.2;;;5.0;;
52342;SDS011;38277;51.972;4.624;2022-08-21T05:54:38;12.5;;;4.7;;
52342;SDS011;38277;51.972;4.624;2022-08-21T05:59:18;13.7;;;4.0;;
52342;SDS011;38277;51.972;4.624;2022-08-21T06:04:18;16.2;;;4.0;;
52342;SDS011;38277;51.972;4.624;2022-08-21T06:07:58;12.6;;;4.4;;
52342;SDS011;38277;51.972;4.624;2022-08-21T06:13:13;14.1;;;4.6;;
52342;SDS011;38277;51.972;4.624;2022-08-21T06:16:58;13.8;;;4.9;;
52342;SDS011;38277;51.972;4.624;2022-08-21T06:22:32;13.2;;;4.9;;
52342;SDS011;38277;51.972;4.624;2022-08-21T06:26:07;14.3;;;4.3;;
52342;SDS011;38277;51.972;4.624;2022-08-21T06:30:27;11.3;;;3.8;;
52342;SDS011;38277;51.972;4.624;2022-08-21T06:35:01;11.2;;;3.5;;
52342;SDS011;38277;51.972;4.624;2022-08-21T06:40:33;15.5;;;5.4;;
52342;SDS011;38277;51.972;4.624;2022-08-21T06:43:59;15.4;;;4.6;;
52342;SDS011;38277;51.972;4.624;2022-08-21T06:53:10;10.4;;;4.1;;
52342;SDS011;38277;51.972;4.624;2022-08-21T06:58:20;10.3;;;3.8;;
52342;SDS011;38277;51.972;4.624;2022-08-21T07:02:07;13.6;;;4.8;;
52342;SDS011;38277;51.972;4.624;2022-08-21T07:10:53;16.2;;;5.0;;
52342;SDS011;38277;51.972;4.624;2022-08-21T07:16:05;9.9;;;4.1;;
52342;SDS011;38277;51.972;4.624;2022-08-21T07:20:03;16.1;;;4.7;;
52342;SDS011;38277;51.972;4.624;2022-08-21T07:24:41;16.0;;;4.3;;
52342;SDS011;38277;51.972;4.624;2022-08-21T07:29:19;13.5;;;4.7;;
52342;SDS011;38277;51.972;4.624;2022-08-21T07:34:21;12.1;;;3.9;;
52342;SDS011;38277;51.972;4.624;2022-08-21T07:38:01;13.5;;;4.3;;
52342;SDS011;38277;51.972;4.624;2022-08-21T07:42:27;14.5;;;3.7;;
52342;SDS011;38277;51.972;4.624;2022-08-21T07:47:02;11.9;;;4.1;;
52342;SDS011;38277;51.972;4.624;2022-08-21T07:52:11;13.9;;;3.3;;
52342;SDS011;38277;51.972;4.624;2022-08-21T07:55:50;15.4;;;4.4;;
52342;SDS011;38277;51.972;4.624;2022-08-21T08:05:00;14.6;;;3.9;;
52342;SDS011;38277;51.972;4.624;2022-08-21T08:10:29;14.4;;;4.1;;
52342;SDS011;38277;51.972;4.624;2022-08-21T08:14:00;12.9;;;3.4;;
52342;SDS011;38277;51.972;4.624;2022-08-21T08:23:14;11.4;;;3.2;;
52342;SDS011;38277;51.972;4.624;2022-08-21T08:28:07;14.1;;;4.0;;
52342;SDS011;38277;51.972;4.624;2022-08-21T08:31:50;11.0;;;4.0;;
52342;SDS011;38277;51.972;4.624;2022-08-21T08:37:07;13.0;;;2.9;;
52342;SDS011;38277;51.972;4.624;2022-08-21T08:41:19;7.9;;;3.1;;
52342;SDS011;38277;51.972;4.624;2022-08-21T08:46:22;12.0;;;3.4;;
52342;SDS011;38277;51.972;4.624;2022-08-21T08:50:17;12.9;;;3.2;;
52342;SDS011;38277;51.972;4.624;2022-08-21T09:00:09;10.3;;;3.2;;
52342;SDS011;38277;51.972;4.624;2022-08-21T09:04:09;11.1;;;3.0;;
52342;SDS011;38277;51.972;4.624;2022-08-21T09:08:56;9.8;;;3.1;;
52342;SDS011;38277;51.972;4.624;2022-08-21T09:12:44;9.6;;;2.6;;
52342;SDS011;38277;51.972;4.624;2022-08-21T09:18:07;8.0;;;2.3;;
52342;SDS011;38277;51.972;4.624;2022-08-21T09:23:43;6.5;;;2.5;;
52342;SDS011;38277;51.972;4.624;2022-08-21T09:26:26;10.5;;;2.7;;
52342;SDS011;38277;51.972;4.624;2022-08-21T09:35:10;7.5;;;2.7;;
52342;SDS011;38277;51.972;4.624;2022-08-21T09:40:28;9.8;;;2.8;;
52342;SDS011;38277;51.972;4.624;2022-08-21T09:44:05;10.0;;;3.0;;
52342;SDS011;38277;51.972;4.624;2022-08-21T09:48:55;6.5;;;2.5;;
52342;SDS011;38277;51.972;4.624;2022-08-21T09:53:15;8.2;;;2.1;;
52342;SDS011;38277;51.972;4.624;2022-08-21T09:58:32;7.5;;;2.0;;
52342;SDS011;38277;51.972;4.624;2022-08-21T10:01:59;13.6;;;3.1;;
52342;SDS011;38277;51.972;4.624;2022-08-21T10:11:01;8.2;;;2.2;;
52342;SDS011;38277;51.972;4.624;2022-08-21T10:16:28;8.3;;;2.2;;
52342;SDS011;38277;51.972;4.624;2022-08-21T10:20:11;7.4;;;2.2;;
52342;SDS011;38277;51.972;4.624;2022-08-21T10:24:48;8.4;;;2.3;;
52342;SDS011;38277;51.972;4.624;2022-08-21T10:29:55;6.7;;;2.1;;
52342;SDS011;38277;51.972;4.624;2022-08-21T10:34:56;6.5;;;2.1;;
52342;SDS011;38277;51.972;4.624;2022-08-21T10:39:27;4.8;;;1.7;;
52342;SDS011;38277;51.972;4.624;2022-08-21T10:48:34;8.8;;;2.0;;
52342;SDS011;38277;51.972;4.624;2022-08-21T10:52:56;6.0;;;1.9;;
52342;SDS011;38277;51.972;4.624;2022-08-21T11:01:10;7.0;;;2.1;;
52342;SDS011;38277;51.972;4.624;2022-08-21T11:05:07;7.1;;;2.0;;
52342;SDS011;38277;51.972;4.624;2022-08-21T11:10:28;9.2;;;2.3;;
52342;SDS011;38277;51.972;4.624;2022-08-21T11:14:13;7.0;;;1.6;;
52342;SDS011;38277;51.972;4.624;2022-08-21T11:23:14;5.5;;;1.6;;
52342;SDS011;38277;51.972;4.624;2022-08-21T11:28:35;7.1;;;1.9;;
52342;SDS011;38277;51.972;4.624;2022-08-21T11:32:29;6.8;;;2.1;;
52342;SDS011;38277;51.972;4.624;2022-08-21T11:36:38;7.8;;;2.4;;
52342;SDS011;38277;51.972;4.624;2022-08-21T11:41:39;5.1;;;1.7;;
52342;SDS011;38277;51.972;4.624;2022-08-21T11:46:24;6.1;;;2.1;;
52342;SDS011;38277;51.972;4.624;2022-08-21T11:50:26;6.9;;;2.1;;
52342;SDS011;38277;51.972;4.624;2022-08-21T11:54:47;5.9;;;1.9;;
52342;SDS011;38277;51.972;4.624;2022-08-21T11:59:32;6.1;;;2.2;;
52342;SDS011;38277;51.972;4.624;2022-08-21T12:04:22;8.5;;;2.1;;
52342;SDS011;38277;51.972;4.624;2022-08-21T12:07:59;6.6;;;2.0;;
52342;SDS011;38277;51.972;4.624;2022-08-21T12:13:32;5.6;;;2.0;;
52342;SDS011;38277;51.972;4.624;2022-08-21T12:17:16;8.5;;;2.5;;
52342;SDS011;38277;51.972;4.624;2022-08-21T12:22:39;5.6;;;1.5;;
52342;SDS011;38277;51.972;4.624;2022-08-21T12:26:31;5.0;;;1.7;;
52342;SDS011;38277;51.972;4.624;2022-08-21T12:35:14;6.9;;;2.0;;
52342;SDS011;38277;51.972;4.624;2022-08-21T12:40:36;3.1;;;1.4;;
52342;SDS011;38277;51.972;4.624;2022-08-21T12:44:20;4.7;;;1.6;;
52342;SDS011;38277;51.972;4.624;2022-08-21T12:48:47;4.5;;;1.4;;
52342;SDS011;38277;51.972;4.624;2022-08-21T12:53:15;7.6;;;1.7;;
52342;SDS011;38277;51.972;4.624;2022-08-21T12:58:31;8.2;;;1.7;;
52342;SDS011;38277;51.972;4.624;2022-08-21T13:01:58;7.2;;;2.1;;
52342;SDS011;38277;51.972;4.624;2022-08-21T13:06:44;5.0;;;1.7;;
52342;SDS011;38277;51.972;4.624;2022-08-21T13:11:13;5.1;;;1.8;;
52342;SDS011;38277;51.972;4.624;2022-08-21T13:16:29;3.7;;;1.3;;
52342;SDS011;38277;51.972;4.624;2022-08-21T13:19:57;4.1;;;1.4;;
52342;SDS011;38277;51.972;4.624;2022-08-21T13:24:35;7.9;;;2.3;;
52342;SDS011;38277;51.972;4.624;2022-08-21T13:29:06;5.6;;;1.7;;
52342;SDS011;38277;51.972;4.624;2022-08-21T13:34:31;5.4;;;1.5;;
52342;SDS011;38277;51.972;4.624;2022-08-21T13:37:56;6.4;;;1.8;;
52342;SDS011;38277;51.972;4.624;2022-08-21T13:42:40;6.6;;;1.8;;
52342;SDS011;38277;51.972;4.624;2022-08-21T13:47:10;7.0;;;1.9;;
52342;SDS011;38277;51.972;4.624;2022-08-21T13:52:26;3.6;;;1.6;;
52342;SDS011;38277;51.972;4.624;2022-08-21T13:56:22;4.9;;;1.4;;
52342;SDS011;38277;51.972;4.624;2022-08-21T14:01:29;4.2;;;1.8;;
52342;SDS011;38277;51.972;4.624;2022-08-21T14:05:15;5.9;;;2.3;;
52342;SDS011;38277;51.972;4.624;2022-08-21T14:10:13;8.0;;;2.4;;
52342;SDS011;38277;51.972;4.624;2022-08-21T14:14:25;7.6;;;2.0;;
52342;SDS011;38277;51.972;4.624;2022-08-21T14:18:44;5.4;;;1.8;;
52342;SDS011;38277;51.972;4.624;2022-08-21T14:23:23;5.5;;;1.8;;
52342;SDS011;38277;51.972;4.624;2022-08-21T14:28:26;5.8;;;1.6;;
52342;SDS011;38277;51.972;4.624;2022-08-21T14:32:08;5.6;;;1.8;;
52342;SDS011;38277;51.972;4.624;2022-08-21T14:37:34;4.9;;;1.6;;
52342;SDS011;38277;51.972;4.624;2022-08-21T14:40:54;8.1;;;2.3;;
52342;SDS011;38277;51.972;4.624;2022-08-21T14:46:29;5.5;;;1.9;;
52342;SDS011;38277;51.972;4.624;2022-08-21T14:50:06;7.8;;;1.9;;
52342;SDS011;38277;51.972;4.624;2022-08-21T14:55:19;5.2;;;1.5;;
52342;SDS011;38277;51.972;4.624;2022-08-21T14:58:51;6.8;;;1.8;;
52342;SDS011;38277;51.972;4.624;2022-08-21T15:04:20;5.2;;;2.0;;
52342;SDS011;38277;51.972;4.624;2022-08-21T15:08:14;6.9;;;2.0;;
52342;SDS011;38277;51.972;4.624;2022-08-21T15:12:50;9.2;;;2.3;;
52342;SDS011;38277;51.972;4.624;2022-08-21T15:17:16;5.8;;;1.7;;
52342;SDS011;38277;51.972;4.624;2022-08-21T15:22:11;5.1;;;1.9;;
52342;SDS011;38277;51.972;4.624;2022-08-21T15:26:03;7.5;;;2.2;;
52342;SDS011;38277;51.972;4.624;2022-08-21T15:35:09;6.2;;;1.8;;
52342;SDS011;38277;51.972;4.624;2022-08-21T15:40:08;7.3;;;1.9;;
52342;SDS011;38277;51.972;4.624;2022-08-21T15:43:51;3.3;;;1.8;;
52342;SDS011;38277;51.972;4.624;2022-08-21T15:49:26;6.1;;;1.9;;
52342;SDS011;38277;51.972;4.624;2022-08-21T15:53:03;5.8;;;1.7;;
52342;SDS011;38277;51.972;4.624;2022-08-21T15:58:13;6.2;;;1.7;;
52342;SDS011;38277;51.972;4.624;2022-08-21T16:02:01;4.9;;;1.9;;
52342;SDS011;38277;51.972;4.624;2022-08-21T16:07:23;6.8;;;2.0;;
52342;SDS011;38277;51.972;4.624;2022-08-21T16:10:52;6.3;;;2.1;;
52342;SDS011;38277;51.972;4.624;2022-08-21T16:16:05;5.3;;;1.8;;
52342;SDS011;38277;51.972;4.624;2022-08-21T16:20:14;6.6;;;2.3;;
52342;SDS011;38277;51.972;4.624;2022-08-21T16:25:06;6.8;;;2.4;;
52342;SDS011;38277;51.972;4.624;2022-08-21T16:28:58;5.4;;;1.7;;
52342;SDS011;38277;51.972;4.624;2022-08-21T16:34:06;4.9;;;1.9;;
52342;SDS011;38277;51.972;4.624;2022-08-21T16:37:58;4.0;;;1.7;;
52342;SDS011;38277;51.972;4.624;2022-08-21T16:42:39;4.3;;;1.9;;
52342;SDS011;38277;51.972;4.624;2022-08-21T16:46:56;5.9;;;2.3;;
52342;SDS011;38277;51.972;4.624;2022-08-21T16:52:22;4.5;;;1.8;;
52342;SDS011;38277;51.972;4.624;2022-08-21T16:55:50;4.6;;;1.8;;
52342;SDS011;38277;51.972;4.624;2022-08-21T17:00:50;5.6;;;1.7;;
52342;SDS011;38277;51.972;4.624;2022-08-21T17:05:09;5.2;;;1.8;;
52342;SDS011;38277;51.972;4.624;2022-08-21T17:10:21;7.1;;;2.0;;
52342;SDS011;38277;51.972;4.624;2022-08-21T17:13:51;5.8;;;2.5;;
52342;SDS011;38277;51.972;4.624;2022-08-21T17:18:25;6.4;;;2.4;;
52342;SDS011;38277;51.972;4.624;2022-08-21T17:23:08;5.9;;;1.9;;
52342;SDS011;38277;51.972;4.624;2022-08-21T17:28:36;3.0;;;1.5;;
52342;SDS011;38277;51.972;4.624;2022-08-21T17:31:59;7.2;;;1.9;;
52342;SDS011;38277;51.972;4.624;2022-08-21T17:36:30;7.0;;;2.3;;
52342;SDS011;38277;51.972;4.624;2022-08-21T17:40:53;6.4;;;1.6;;
52342;SDS011;38277;51.972;4.624;2022-08-21T17:45:21;6.3;;;1.8;;
52342;SDS011;38277;51.972;4.624;2022-08-21T17:54:27;8.4;;;2.6;;
52342;SDS011;38277;51.972;4.624;2022-08-21T17:59:13;5.1;;;1.8;;
52342;SDS011;38277;51.972;4.624;2022-08-21T18:03:32;5.1;;;1.7;;
52342;SDS011;38277;51.972;4.624;2022-08-21T18:07:56;6.0;;;1.8;;
52342;SDS011;38277;51.972;4.624;2022-08-21T18:12:41;7.4;;;2.3;;
52342;SDS011;38277;51.972;4.624;2022-08-21T18:16:59;5.6;;;2.2;;
52342;SDS011;38277;51.972;4.624;2022-08-21T18:21:22;6.3;;;1.8;;
52342;SDS011;38277;51.972;4.624;2022-08-21T18:30:33;5.8;;;1.8;;
52342;SDS011;38277;51.972;4.624;2022-08-21T18:35:14;5.4;;;1.9;;
52342;SDS011;38277;51.972;4.624;2022-08-21T18:39:25;5.0;;;1.6;;
52342;SDS011;38277;51.972;4.624;2022-08-21T18:44:20;7.2;;;1.9;;
52342;SDS011;38277;51.972;4.624;2022-08-21T18:48:50;4.4;;;1.6;;
52342;SDS011;38277;51.972;4.624;2022-08-21T18:53:18;6.9;;;1.8;;
52342;SDS011;38277;51.972;4.624;2022-08-21T18:57:44;4.9;;;1.8;;
52342;SDS011;38277;51.972;4.624;2022-08-21T19:06:49;4.7;;;1.8;;
52342;SDS011;38277;51.972;4.624;2022-08-21T19:15:29;5.6;;;1.8;;
52342;SDS011;38277;51.972;4.624;2022-08-21T19:20:11;5.2;;;1.6;;
52342;SDS011;38277;51.972;4.624;2022-08-21T19:24:34;4.1;;;1.6;;
52342;SDS011;38277;51.972;4.624;2022-08-21T19:30:02;5.0;;;1.6;;
52342;SDS011;38277;51.972;4.624;2022-08-21T19:33:24;5.7;;;1.8;;
52342;SDS011;38277;51.972;4.624;2022-08-21T19:38:09;3.5;;;1.6;;
52342;SDS011;38277;51.972;4.624;2022-08-21T19:42:43;4.5;;;2.0;;
52342;SDS011;38277;51.972;4.624;2022-08-21T19:47:59;3.0;;;1.5;;
52342;SDS011;38277;51.972;4.624;2022-08-21T19:51:49;3.7;;;1.5;;
52342;SDS011;38277;51.972;4.624;2022-08-21T19:56:53;5.6;;;1.7;;
52342;SDS011;38277;51.972;4.624;2022-08-21T20:00:21;7.0;;;1.9;;
52342;SDS011;38277;51.972;4.624;2022-08-21T20:05:59;5.6;;;1.8;;
52342;SDS011;38277;51.972;4.624;2022-08-21T20:09:39;3.5;;;1.6;;
52342;SDS011;38277;51.972;4.624;2022-08-21T20:18:39;4.3;;;1.5;;
52342;SDS011;38277;51.972;4.624;2022-08-21T20:23:51;4.3;;;1.8;;
52342;SDS011;38277;51.972;4.624;2022-08-21T20:27:35;2.9;;;1.5;;
52342;SDS011;38277;51.972;4.624;2022-08-21T20:36:21;4.1;;;1.5;;
52342;SDS011;38277;51.972;4.624;2022-08-21T20:41:56;5.7;;;1.8;;
52342;SDS011;38277;51.972;4.624;2022-08-21T20:45:32;5.0;;;1.7;;
52342;SDS011;38277;51.972;4.624;2022-08-21T20:50:58;5.2;;;1.7;;
52342;SDS011;38277;51.972;4.624;2022-08-21T20:54:30;3.6;;;1.3;;
52342;SDS011;38277;51.972;4.624;2022-08-21T20:59:13;5.4;;;1.5;;
52342;SDS011;38277;51.972;4.624;2022-08-21T21:03:44;5.3;;;2.1;;
52342;SDS011;38277;51.972;4.624;2022-08-21T21:08:47;5.7;;;2.0;;
52342;SDS011;38277;51.972;4.624;2022-08-21T21:12:42;3.6;;;1.9;;
52342;SDS011;38277;51.972;4.624;2022-08-21T21:17:04;4.8;;;2.2;;
52342;SDS011;38277;51.972;4.624;2022-08-21T21:21:41;5.9;;;2.0;;
52342;SDS011;38277;51.972;4.624;2022-08-21T21:27:46;6.9;;;2.0;;
52342;SDS011;38277;51.972;4.624;2022-08-21T21:30:48;5.6;;;2.2;;
52342;SDS011;38277;51.972;4.624;2022-08-21T21:35:08;6.7;;;2.1;;
52342;SDS011;38277;51.972;4.624;2022-08-21T21:41:01;6.8;;;2.0;;
52342;SDS011;38277;51.972;4.624;2022-08-21T21:45:53;4.6;;;1.8;;
52342;SDS011;38277;51.972;4.624;2022-08-21T21:56:08;4.8;;;1.9;;
52342;SDS011;38277;51.972;4.624;2022-08-21T22:00:33;5.9;;;1.9;;
52342;SDS011;38277;51.972;4.624;2022-08-21T22:05:20;5.0;;;2.0;;
52342;SDS011;38277;51.972;4.624;2022-08-21T22:08:49;7.0;;;2.2;;
52342;SDS011;38277;51.972;4.624;2022-08-21T22:13:08;6.4;;;2.0;;
52342;SDS011;38277;51.972;4.624;2022-08-21T22:16:21;5.1;;;2.2;;
52342;SDS011;38277;51.972;4.624;2022-08-21T22:20:58;3.5;;;1.8;;
52342;SDS011;38277;51.972;4.624;2022-08-21T22:24:30;6.5;;;2.9;;
52342;SDS011;38277;51.972;4.624;2022-08-21T22:29:20;4.6;;;1.8;;
52342;SDS011;38277;51.972;4.624;2022-08-21T22:33:27;5.1;;;2.0;;
52342;SDS011;38277;51.972;4.624;2022-08-21T22:37:53;4.8;;;1.8;;
52342;SDS011;38277;51.972;4.624;2022-08-21T22:42:25;6.5;;;2.5;;
52342;SDS011;38277;51.972;4.624;2022-08-21T22:47:09;9.0;;;1.8;;
52342;SDS011;38277;51.972;4.624;2022-08-21T22:52:18;4.7;;;2.1;;
52342;SDS011;38277;51.972;4.624;2022-08-21T22:57:05;4.3;;;1.9;;
52342;SDS011;38277;51.972;4.624;2022-08-21T23:00:40;5.4;;;1.8;;
52342;SDS011;38277;51.972;4.624;2022-08-21T23:05:07;4.5;;;1.9;;
52342;SDS011;38277;51.972;4.624;2022-08-21T23:09:32;3.6;;;1.8;;
52342;SDS011;38277;51.972;4.624;2022-08-21T23:14:05;4.7;;;1.7;;
52342;SDS011;38277;51.972;4.624;2022-08-21T23:19:07;6.0;;;2.8;;
52342;SDS011;38277;51.972;4.624;2022-08-21T23:23:33;7.8;;;3.0;;
52342;SDS011;38277;51.972;4.624;2022-08-21T23:29:03;4.9;;;1.9;;
52342;SDS011;38277;51.972;4.624;2022-08-21T23:33:40;5.7;;;2.1;;
52342;SDS011;38277;51.972;4.624;2022-08-21T23:44:07;6.5;;;2.0;;
52342;SDS011;38277;51.972;4.624;2022-08-21T23:48:24;6.8;;;2.0;;
52342;SDS011;38277;51.972;4.624;2022-08-21T23:52:57;4.3;;;2.2;;
52342;SDS011;38277;51.972;4.624;2022-08-21T23:58:28;5.0;;;2.2;;
